createdAt,value
2018-06-05T00:02:13.541Z,17.13
2018-06-05T00:06:58.693Z,19.17
2018-06-05T00:11:43.081Z,19.80
2018-06-05T00:16:27.577Z,19.13
2018-06-05T00:26:08.169Z,20.80
2018-06-05T00:30:52.727Z,20.77
2018-06-05T00:35:37.202Z,19.37
2018-06-05T00:40:21.635Z,19.77
2018-06-05T00:45:06.152Z,19.17
2018-06-05T00:49:50.636Z,17.23
2018-06-05T00:54:34.675Z,18.67
2018-06-05T00:59:18.903Z,18.20
2018-06-05T01:04:03.334Z,18.27
2018-06-05T01:08:47.727Z,19.07
2018-06-05T01:13:32.155Z,19.97
2018-06-05T01:18:16.498Z,17.53
2018-06-05T01:23:00.878Z,18.73
2018-06-05T01:27:45.273Z,18.77
2018-06-05T01:32:29.598Z,18.03
2018-06-05T01:37:14.071Z,18.07
2018-06-05T01:41:58.430Z,18.00
2018-06-05T01:46:43.911Z,19.40
2018-06-05T01:51:28.362Z,18.70
2018-06-05T01:56:12.831Z,19.27
2018-06-05T02:00:57.386Z,21.23
2018-06-05T02:05:41.894Z,19.83
2018-06-05T02:10:26.301Z,20.07
2018-06-05T02:15:10.955Z,21.60
2018-06-05T02:19:55.381Z,21.13
2018-06-05T02:24:39.919Z,22.33
2018-06-05T02:29:24.254Z,23.07
2018-06-05T02:34:08.658Z,24.03
2018-06-05T02:38:53.006Z,24.63
2018-06-05T02:43:37.395Z,24.37
2018-06-05T02:48:21.842Z,23.40
2018-06-05T02:53:06.294Z,30.80
2018-06-05T02:57:50.679Z,25.07
2018-06-05T03:02:35.093Z,25.60
2018-06-05T03:07:19.509Z,27.53
2018-06-05T03:12:03.950Z,27.63
2018-06-05T03:16:48.471Z,28.40
2018-06-05T03:21:32.810Z,25.33
2018-06-05T03:26:17.175Z,29.27
2018-06-05T03:31:01.579Z,25.27
2018-06-05T03:35:45.921Z,26.67
2018-06-05T03:40:30.248Z,26.20
2018-06-05T03:45:14.605Z,26.80
2018-06-05T03:49:58.946Z,26.70
2018-06-05T03:54:43.566Z,29.57
2018-06-05T03:59:28.118Z,30.77
2018-06-05T04:04:12.459Z,31.50
2018-06-05T04:08:56.802Z,28.30
2018-06-05T04:13:41.279Z,28.47
2018-06-05T04:18:25.773Z,27.63
2018-06-05T04:23:10.243Z,27.80
2018-06-05T04:27:54.626Z,30.73
2018-06-05T04:32:39.114Z,29.20
2018-06-05T04:37:23.587Z,28.27
2018-06-05T04:42:08.031Z,32.63
2018-06-05T04:46:52.463Z,31.07
2018-06-05T04:51:36.986Z,34.93
2018-06-05T04:56:21.399Z,30.80
2018-06-05T05:01:05.866Z,34.57
2018-06-05T05:05:50.316Z,35.13
2018-06-05T05:10:34.712Z,36.87
2018-06-05T05:15:18.727Z,33.83
2018-06-05T05:20:03.209Z,34.80
2018-06-05T05:24:47.568Z,38.83
2018-06-05T05:29:32.035Z,38.23
2018-06-05T05:34:16.101Z,37.57
2018-06-05T05:39:00.437Z,34.23
2018-06-05T05:43:44.881Z,38.23
2018-06-05T05:48:29.307Z,33.67
2018-06-05T05:53:13.655Z,37.40
2018-06-05T05:57:58.381Z,34.50
2018-06-05T06:02:42.754Z,36.03
2018-06-05T06:07:27.126Z,37.13
2018-06-05T06:12:11.631Z,34.73
2018-06-05T06:16:56.138Z,34.90
2018-06-05T06:21:40.703Z,37.80
2018-06-05T06:26:25.193Z,33.30
2018-06-05T06:31:09.680Z,36.27
2018-06-05T06:35:55.138Z,39.33
2018-06-05T06:40:39.634Z,37.20
2018-06-05T06:45:24.095Z,35.80
2018-06-05T06:50:08.566Z,42.47
2018-06-05T06:54:52.906Z,38.50
2018-06-05T06:59:37.358Z,41.87
2018-06-05T07:04:21.850Z,39.07
2018-06-05T07:09:08.139Z,37.37
2018-06-05T07:13:52.600Z,31.67
2018-06-05T07:18:37.108Z,31.83
2018-06-05T07:23:21.452Z,27.57
2018-06-05T07:28:05.983Z,29.30
2018-06-05T07:32:50.533Z,34.33
2018-06-05T07:37:34.939Z,37.47
2018-06-05T07:42:19.460Z,34.67
2018-06-05T07:47:03.812Z,31.67
2018-06-05T07:51:48.244Z,30.07
2018-06-05T07:56:32.700Z,24.33
2018-06-05T08:01:17.109Z,27.30
2018-06-05T08:06:01.539Z,26.27
2018-06-05T08:10:46.155Z,26.87
2018-06-05T08:15:30.524Z,25.83
2018-06-05T08:20:14.919Z,22.63
2018-06-05T08:24:59.311Z,23.27
2018-06-05T08:29:43.711Z,24.33
2018-06-05T08:34:28.132Z,26.90
2018-06-05T08:39:12.655Z,26.33
2018-06-05T08:43:57.180Z,25.33
2018-06-05T08:48:41.661Z,25.93
2018-06-05T08:53:26.074Z,26.37
2018-06-05T08:58:10.555Z,27.53
2018-06-05T09:02:54.955Z,27.73
2018-06-05T09:07:39.366Z,30.93
2018-06-05T09:12:23.832Z,33.10
2018-06-05T09:17:08.170Z,31.87
2018-06-05T09:21:52.599Z,34.57
2018-06-05T09:26:37.111Z,35.03
2018-06-05T09:31:21.485Z,34.57
2018-06-05T09:36:05.872Z,35.43
2018-06-05T09:40:50.279Z,31.43
2018-06-05T09:45:34.711Z,33.63
2018-06-05T09:50:19.193Z,32.50
2018-06-05T09:55:03.626Z,35.20
2018-06-05T09:59:48.048Z,37.33
2018-06-05T10:04:32.358Z,39.27
2018-06-05T10:09:16.782Z,43.80
2018-06-05T10:14:01.987Z,41.57
2018-06-05T10:18:46.383Z,42.33
2018-06-05T10:23:31.116Z,40.57
2018-06-05T10:28:15.714Z,37.97
2018-06-05T10:33:00.333Z,40.17
2018-06-05T10:37:45.151Z,39.93
2018-06-05T10:42:29.699Z,44.50
2018-06-05T10:47:14.414Z,39.77
2018-06-05T10:51:58.851Z,47.97
2018-06-05T10:56:43.357Z,45.00
2018-06-05T11:01:27.984Z,44.53
2018-06-05T11:06:12.402Z,46.10
2018-06-05T11:10:57.611Z,48.03
2018-06-05T11:15:42.235Z,48.90
2018-06-05T11:20:27.234Z,48.20
2018-06-05T11:25:11.594Z,49.53
2018-06-05T11:29:56.117Z,53.87
2018-06-05T11:34:40.750Z,49.10
2018-06-05T11:39:25.129Z,52.27
2018-06-05T11:44:09.629Z,55.90
2018-06-05T11:48:54.262Z,49.90
2018-06-05T11:53:38.883Z,40.87
2018-06-05T11:58:23.829Z,34.13
2018-06-05T12:03:08.440Z,33.43
2018-06-05T12:07:53.048Z,31.67
2018-06-05T12:12:37.527Z,31.90
2018-06-05T12:17:22.048Z,38.37
2018-06-05T12:22:06.839Z,38.00
2018-06-05T12:26:51.442Z,35.50
2018-06-05T12:31:35.966Z,39.30
2018-06-05T12:36:20.816Z,43.80
2018-06-05T12:41:05.277Z,35.07
2018-06-05T12:45:50.046Z,36.47
2018-06-05T12:50:36.248Z,32.53
2018-06-05T12:55:20.697Z,33.47
2018-06-05T13:00:07.334Z,31.13
2018-06-05T13:04:53.042Z,34.90
2018-06-05T13:09:37.738Z,31.33
2018-06-05T13:14:22.261Z,24.33
2018-06-05T13:19:06.813Z,25.97
2018-06-05T13:23:52.170Z,24.17
2018-06-05T13:28:37.371Z,23.80
2018-06-05T13:33:22.666Z,20.60
2018-06-05T13:38:07.048Z,19.60
2018-06-05T13:42:51.501Z,18.73
2018-06-05T13:47:36.114Z,19.73
2018-06-05T13:52:21.559Z,21.00
2018-06-05T13:57:06.168Z,19.10
2018-06-05T14:01:50.837Z,16.50
2018-06-05T14:06:35.369Z,16.87
2018-06-05T14:11:19.879Z,16.40
2018-06-05T14:16:04.284Z,17.80
2018-06-05T14:20:48.773Z,17.53
2018-06-05T14:25:33.259Z,15.90
2018-06-05T14:30:17.714Z,17.60
2018-06-05T14:35:02.149Z,16.23
2018-06-05T14:39:46.890Z,16.10
2018-06-05T14:44:31.281Z,17.13
2018-06-05T14:49:15.775Z,16.70
2018-06-05T14:54:00.256Z,13.97
2018-06-05T14:58:44.790Z,15.30
2018-06-05T15:03:29.209Z,16.77
2018-06-05T15:08:13.640Z,16.47
2018-06-05T15:12:58.004Z,15.93
2018-06-05T15:17:42.426Z,16.73
2018-06-05T15:22:26.854Z,15.20
2018-06-05T15:27:11.611Z,18.90
2018-06-05T15:31:56.111Z,17.37
2018-06-05T15:36:40.656Z,20.03
2018-06-05T15:41:25.180Z,18.63
2018-06-05T15:46:09.709Z,21.50
2018-06-05T15:50:54.499Z,18.30
2018-06-05T15:55:39.282Z,19.53
2018-06-05T16:00:23.854Z,21.50
2018-06-05T16:05:11.454Z,23.10
2018-06-05T16:09:56.164Z,21.07
2018-06-05T16:14:40.768Z,19.17
2018-06-05T16:19:25.344Z,20.10
2018-06-05T16:24:09.999Z,18.53
2018-06-05T16:28:54.480Z,20.43
2018-06-05T16:33:38.936Z,19.43
2018-06-05T16:38:23.389Z,18.87
2018-06-05T16:43:07.996Z,18.73
2018-06-05T16:47:52.452Z,18.65
2018-06-05T16:52:37.585Z,19.12
2018-06-05T16:57:22.370Z,19.60
2018-06-05T17:02:06.802Z,18.77
2018-06-05T17:06:51.482Z,18.30
2018-06-05T17:11:39.491Z,16.20
2018-06-05T17:16:24.548Z,15.55
2018-06-05T17:21:09.471Z,18.42
2018-06-05T17:25:54.104Z,14.53
2018-06-05T17:30:38.962Z,18.10
2018-06-05T17:35:24.609Z,14.20
2018-06-05T17:40:09.055Z,14.40
2018-06-05T17:44:53.519Z,13.58
2018-06-05T17:49:38.269Z,16.23
2018-06-05T17:54:22.861Z,15.83
2018-06-05T17:59:07.744Z,16.60
2018-06-05T18:03:52.444Z,19.07
2018-06-05T18:08:36.875Z,17.43
2018-06-05T18:13:21.345Z,16.93
2018-06-05T18:18:05.911Z,17.07
2018-06-05T18:22:50.542Z,16.03
2018-06-05T18:27:34.983Z,16.10
2018-06-05T18:32:19.583Z,16.93
2018-06-05T18:37:04.169Z,15.37
2018-06-05T18:41:48.661Z,15.30
2018-06-05T18:46:33.371Z,15.87
2018-06-05T18:51:19.509Z,16.97
2018-06-05T18:56:04.071Z,17.07
2018-06-05T19:00:48.731Z,20.07
2018-06-05T19:05:33.406Z,16.97
2018-06-05T19:10:17.532Z,16.60
2018-06-05T19:15:01.971Z,18.90
2018-06-05T19:19:46.503Z,19.83
2018-06-05T19:24:31.121Z,18.90
2018-06-05T19:29:16.121Z,19.03
2018-06-05T19:34:02.076Z,19.03
2018-06-05T19:38:47.077Z,16.80
2018-06-05T19:43:32.293Z,17.73
2018-06-05T19:48:17.229Z,18.13
2018-06-05T19:53:02.126Z,19.20
2018-06-05T19:57:47.031Z,26.43
2018-06-05T20:02:32.051Z,19.87
2018-06-05T20:07:17.229Z,20.90
2018-06-05T20:12:02.369Z,23.90
2018-06-05T20:16:55.919Z,23.00
2018-06-05T20:21:42.603Z,21.63
2018-06-05T20:26:27.933Z,21.27
2018-06-05T20:31:13.036Z,21.60
2018-06-05T20:35:58.332Z,23.67
2018-06-05T20:40:43.348Z,24.03
2018-06-05T20:45:28.163Z,24.43
2018-06-05T20:50:14.145Z,22.03
2018-06-05T20:54:59.457Z,22.70
2018-06-05T20:59:44.972Z,27.97
2018-06-05T21:04:30.156Z,23.03
2018-06-05T21:09:15.546Z,23.60
2018-06-05T21:14:01.003Z,24.50
2018-06-05T21:18:46.443Z,21.93
2018-06-05T21:23:31.544Z,22.93
2018-06-05T21:28:17.931Z,25.17
2018-06-05T21:33:03.354Z,26.40
2018-06-05T21:37:49.232Z,32.13
2018-06-05T21:42:34.520Z,32.33
2018-06-05T21:47:19.646Z,28.63
2018-06-05T21:52:04.424Z,29.53
2018-06-05T21:56:49.436Z,26.83
2018-06-05T22:01:34.681Z,31.33
2018-06-05T22:06:19.681Z,29.33
2018-06-05T22:11:04.246Z,28.27
2018-06-05T22:15:49.059Z,31.63
2018-06-05T22:20:33.993Z,26.40
2018-06-05T22:25:18.891Z,27.30
2018-06-05T22:30:03.642Z,28.50
2018-06-05T22:34:48.707Z,27.10
2018-06-05T22:39:33.697Z,30.87
2018-06-05T22:44:18.354Z,26.27
2018-06-05T22:49:02.970Z,29.17
2018-06-05T22:53:47.647Z,24.93
2018-06-05T22:58:32.302Z,31.80
2018-06-05T23:03:16.996Z,27.80
2018-06-05T23:08:01.676Z,31.50
2018-06-05T23:12:46.463Z,33.23
2018-06-05T23:17:31.410Z,28.47
2018-06-05T23:22:16.006Z,29.73
2018-06-05T23:27:00.482Z,28.50
2018-06-05T23:31:44.868Z,26.43
2018-06-05T23:36:29.310Z,31.97
2018-06-05T23:41:13.634Z,28.27
2018-06-05T23:45:58.206Z,29.87
2018-06-05T23:50:42.728Z,29.13
2018-06-05T23:55:27.130Z,30.43
